CDT,Max TemperatureF,Mean TemperatureF,Min TemperatureF,Max Dew PointF,MeanDew PointF,Min DewpointF,Max Humidity, Mean Humidity, Min Humidity, Max Sea Level PressureIn, Mean Sea Level PressureIn, Min Sea Level PressureIn, Max VisibilityMiles, Mean VisibilityMiles, Min VisibilityMiles, Max Wind SpeedMPH, Mean Wind SpeedMPH, Max Gust SpeedMPH,PrecipitationIn, CloudCover, Events, WindDirDegrees
2013-9-1,86,78,69,77,72,68,100,87,62,29.94,29.86,29.80,10,10,10,16,4,31,0.03,0,Rain-Thunderstorm,238
2013-9-2,83,74,62,71,65,61,100,78,48,30.00,29.96,29.89,10,10,10,10,5,16,0.00,0,,320
2013-9-3,82,68,55,64,59,55,100,77,41,30.11,30.05,29.99,10,10,7,8,2,,0.00,0,,323
2013-9-4,84,68,53,64,57,54,100,77,35,30.18,30.13,30.08,10,8,2,6,2,,0.00,0,,142
2013-9-5,85,71,57,65,61,58,100,77,41,30.22,30.18,30.15,10,10,10,8,3,,0.00,1,,138
2013-9-6,86,74,63,66,63,57,100,74,37,30.18,30.12,30.05,10,10,10,6,4,,0.00,4,,163
2013-9-7,91,77,63,68,65,63,100,71,40,30.07,30.02,29.95,10,10,10,8,5,,0.00,0,,180
2013-9-8,87,79,72,74,70,66,94,77,64,30.04,29.95,29.91,10,10,10,9,5,17,0.00,4,Rain,174
2013-9-9,94,83,71,71,68,63,96,64,34,30.01,29.97,29.93,10,10,10,8,5,,0.00,0,,197
2013-9-10,94,82,69,68,65,59,92,63,31,30.15,30.08,30.00,10,10,10,8,5,,0.00,0,,188
2013-9-11,92,80,67,70,67,64,92,67,43,30.16,30.11,30.06,10,10,10,8,4,,0.00,0,,199
2013-9-12,86,77,69,75,69,54,98,80,59,30.13,30.07,30.03,10,10,9,15,6,20,0.07,2,Rain,324
2013-9-13,77,65,53,55,50,48,91,58,36,30.15,30.10,30.05,10,10,9,10,6,,0.00,0,,24
2013-9-14,76,60,45,50,48,44,98,62,33,30.16,30.09,30.04,10,10,10,12,5,,0.00,0,,118
2013-9-15,85,68,52,66,56,49,90,65,42,30.10,30.05,30.02,10,10,10,8,5,,0.00,2,,168
2013-9-16,68,64,60,68,64,61,100,99,92,30.25,30.19,30.11,10,6,0,10,6,,0.20,8,Fog-Rain-Thunderstorm,48
2013-9-17,72,66,60,70,65,61,100,96,83,30.22,30.17,30.06,10,10,4,14,5,,0.15,7,Rain,104
2013-9-18,82,73,66,74,70,67,100,96,70,30.08,30.04,29.96,10,8,1,13,7,,0.61,6,Rain-Thunderstorm,160
2013-9-19,88,78,69,73,70,67,100,82,60,30.03,29.97,29.88,10,10,10,13,7,20,0.00,4,,169
2013-9-20,72,64,54,70,66,54,100,97,78,29.99,29.96,29.91,10,8,1,15,7,24,1.52,6,Rain-Thunderstorm,300
2013-9-21,70,60,49,54,50,46,100,75,41,30.03,29.97,29.94,10,8,2,12,5,18,0.00,0,,325
2013-9-22,74,58,43,58,51,44,100,77,45,30.04,29.97,29.93,10,8,2,6,3,,0.00,0,,138
2013-9-23,76,62,48,56,53,49,100,76,39,30.01,29.95,29.88,10,10,10,12,7,,0.00,0,,138
2013-9-24,81,68,54,61,58,54,100,79,48,29.92,29.85,29.80,10,10,10,9,6,,0.00,2,,169
2013-9-25,77,66,55,65,61,55,100,84,60,29.89,29.86,29.81,10,10,9,6,3,,0.00,2,,27
2013-9-26,82,69,57,66,62,57,100,89,54,30.00,29.95,29.88,10,6,0,12,4,,0.00,0,Fog,138
2013-9-27,82,71,60,68,64,60,100,84,55,30.08,30.02,29.97,10,10,10,13,8,18,0.00,0,,140
2013-9-28,81,72,62,72,67,63,100,96,60,30.05,29.99,29.95,10,8,1,18,8,30,0.31,6,Rain,195
2013-9-29,71,62,54,63,57,53,100,92,54,30.09,30.05,29.99,10,8,0,13,7,16,0.01,4,Fog,2
2013-9-30,77,65,53,66,61,54,100,91,59,29.98,29.95,29.89,10,6,0,10,5,,0.00,5,Fog,148